sensor_id;sensor_type;location;lat;lon;timestamp;P1;durP1;ratioP1;P2;durP2;ratioP2
30335;SDS011;17142;47.990;7.846;2022-08-18T05:55:57;9.00;;;6.80;;
30335;SDS011;17142;47.990;7.846;2022-08-18T05:58:45;8.43;;;6.20;;
30335;SDS011;17142;47.990;7.846;2022-08-18T06:01:23;8.20;;;7.20;;
30335;SDS011;17142;47.990;7.846;2022-08-18T06:06:26;9.43;;;6.20;;
30335;SDS011;17142;47.990;7.846;2022-08-18T06:11:35;6.43;;;5.77;;
30335;SDS011;17142;47.990;7.846;2022-08-18T06:14:03;7.53;;;6.83;;
30335;SDS011;17142;47.990;7.846;2022-08-18T06:16:37;20.60;;;17.83;;
30335;SDS011;17142;47.990;7.846;2022-08-18T06:25:06;10.77;;;6.27;;
30335;SDS011;17142;47.990;7.846;2022-08-18T06:27:48;6.90;;;6.20;;
30335;SDS011;17142;47.990;7.846;2022-08-18T06:36:34;6.30;;;5.63;;
30335;SDS011;17142;47.990;7.846;2022-08-18T06:41:50;9.27;;;7.13;;
30335;SDS011;17142;47.990;7.846;2022-08-18T06:47:16;9.23;;;7.90;;
30335;SDS011;17142;47.990;7.846;2022-08-18T06:49:49;9.60;;;7.57;;
30335;SDS011;17142;47.990;7.846;2022-08-18T06:52:34;7.90;;;6.70;;
30335;SDS011;17142;47.990;7.846;2022-08-18T06:55:07;7.90;;;7.10;;
30335;SDS011;17142;47.990;7.846;2022-08-18T06:57:53;7.50;;;6.80;;
30335;SDS011;17142;47.990;7.846;2022-08-18T07:00:23;8.13;;;7.33;;
30335;SDS011;17142;47.990;7.846;2022-08-18T07:02:55;11.20;;;6.47;;
30335;SDS011;17142;47.990;7.846;2022-08-18T07:05:26;6.70;;;5.97;;
30335;SDS011;17142;47.990;7.846;2022-08-18T07:08:07;7.30;;;6.63;;
30335;SDS011;17142;47.990;7.846;2022-08-18T07:10:38;8.30;;;6.63;;
30335;SDS011;17142;47.990;7.846;2022-08-18T07:13:16;6.97;;;6.30;;
30335;SDS011;17142;47.990;7.846;2022-08-18T07:15:51;7.13;;;6.43;;
30335;SDS011;17142;47.990;7.846;2022-08-18T07:18:38;6.80;;;6.20;;
30335;SDS011;17142;47.990;7.846;2022-08-18T07:21:04;6.00;;;5.40;;
30335;SDS011;17142;47.990;7.846;2022-08-18T07:28:45;6.20;;;5.60;;
30335;SDS011;17142;47.990;7.846;2022-08-18T07:34:07;6.47;;;5.77;;
30335;SDS011;17142;47.990;7.846;2022-08-18T07:36:41;5.87;;;5.10;;
30335;SDS011;17142;47.990;7.846;2022-08-18T07:39:14;6.13;;;5.60;;
30335;SDS011;17142;47.990;7.846;2022-08-18T07:42:11;6.67;;;6.00;;
30335;SDS011;17142;47.990;7.846;2022-08-18T07:44:44;7.10;;;5.37;;
30335;SDS011;17142;47.990;7.846;2022-08-18T07:49:44;6.23;;;5.60;;
30335;SDS011;17142;47.990;7.846;2022-08-18T08:08:09;5.23;;;4.83;;
30335;SDS011;17142;47.990;7.846;2022-08-18T08:10:58;6.77;;;5.30;;
30335;SDS011;17142;47.990;7.846;2022-08-18T08:16:45;7.13;;;5.70;;
30335;SDS011;17142;47.990;7.846;2022-08-18T08:24:40;5.63;;;5.13;;
30335;SDS011;17142;47.990;7.846;2022-08-18T08:30:09;5.60;;;5.07;;
30335;SDS011;17142;47.990;7.846;2022-08-18T08:35:49;6.30;;;5.70;;
30335;SDS011;17142;47.990;7.846;2022-08-18T08:38:15;6.33;;;5.67;;
30335;SDS011;17142;47.990;7.846;2022-08-18T08:43:57;6.20;;;5.40;;
30335;SDS011;17142;47.990;7.846;2022-08-18T08:46:55;6.17;;;5.63;;
30335;SDS011;17142;47.990;7.846;2022-08-18T08:49:43;6.77;;;6.07;;
30335;SDS011;17142;47.990;7.846;2022-08-18T08:55:43;9.00;;;5.73;;
30335;SDS011;17142;47.990;7.846;2022-08-18T09:01:02;7.43;;;6.23;;
30335;SDS011;17142;47.990;7.846;2022-08-18T09:16:55;7.00;;;6.30;;
30335;SDS011;17142;47.990;7.846;2022-08-18T09:22:51;5.47;;;4.97;;
30335;SDS011;17142;47.990;7.846;2022-08-18T09:28:10;5.53;;;5.03;;
30335;SDS011;17142;47.990;7.846;2022-08-18T09:42:29;6.73;;;4.90;;
30335;SDS011;17142;47.990;7.846;2022-08-18T09:45:03;4.90;;;4.33;;
30335;SDS011;17142;47.990;7.846;2022-08-18T09:59:57;5.90;;;5.40;;
30335;SDS011;17142;47.990;7.846;2022-08-18T10:07:43;6.33;;;5.70;;
30335;SDS011;17142;47.990;7.846;2022-08-18T10:13:18;6.47;;;5.87;;
30335;SDS011;17142;47.990;7.846;2022-08-18T10:21:13;6.47;;;4.80;;
30335;SDS011;17142;47.990;7.846;2022-08-18T10:31:31;4.90;;;4.13;;
30335;SDS011;17142;47.990;7.846;2022-08-18T10:37:01;4.53;;;4.10;;
30335;SDS011;17142;47.990;7.846;2022-08-18T10:40:00;4.00;;;3.60;;
30335;SDS011;17142;47.990;7.846;2022-08-18T10:42:47;4.10;;;3.80;;
30335;SDS011;17142;47.990;7.846;2022-08-18T10:47:59;7.43;;;5.70;;
30335;SDS011;17142;47.990;7.846;2022-08-18T10:50:42;8.63;;;4.37;;
30335;SDS011;17142;47.990;7.846;2022-08-18T11:04:35;4.73;;;4.20;;
30335;SDS011;17142;47.990;7.846;2022-08-18T11:07:28;6.70;;;4.40;;
30335;SDS011;17142;47.990;7.846;2022-08-18T11:09:55;4.83;;;4.33;;
30335;SDS011;17142;47.990;7.846;2022-08-18T11:15:11;4.93;;;4.23;;
30335;SDS011;17142;47.990;7.846;2022-08-18T11:18:22;6.23;;;4.00;;
30335;SDS011;17142;47.990;7.846;2022-08-18T11:24:12;5.47;;;4.97;;
30335;SDS011;17142;47.990;7.846;2022-08-18T11:29:16;4.47;;;4.07;;
30335;SDS011;17142;47.990;7.846;2022-08-18T11:31:42;6.43;;;4.67;;
30335;SDS011;17142;47.990;7.846;2022-08-18T11:34:17;5.03;;;4.57;;
30335;SDS011;17142;47.990;7.846;2022-08-18T11:36:56;5.37;;;4.77;;
30335;SDS011;17142;47.990;7.846;2022-08-18T11:39:24;5.47;;;5.07;;
30335;SDS011;17142;47.990;7.846;2022-08-18T11:41:53;5.57;;;5.13;;
30335;SDS011;17142;47.990;7.846;2022-08-18T11:44:20;4.93;;;4.53;;
30335;SDS011;17142;47.990;7.846;2022-08-18T11:46:53;5.77;;;4.90;;
30335;SDS011;17142;47.990;7.846;2022-08-18T11:49:28;5.93;;;5.43;;
30335;SDS011;17142;47.990;7.846;2022-08-18T11:52:44;6.77;;;5.37;;
30335;SDS011;17142;47.990;7.846;2022-08-18T11:54:50;5.13;;;4.73;;
30335;SDS011;17142;47.990;7.846;2022-08-18T11:57:38;6.03;;;5.13;;
30335;SDS011;17142;47.990;7.846;2022-08-18T12:05:45;8.90;;;5.40;;
30335;SDS011;17142;47.990;7.846;2022-08-18T12:08:19;5.70;;;5.20;;
30335;SDS011;17142;47.990;7.846;2022-08-18T12:10:47;5.80;;;5.13;;
30335;SDS011;17142;47.990;7.846;2022-08-18T12:13:20;6.10;;;5.60;;
30335;SDS011;17142;47.990;7.846;2022-08-18T12:16:06;7.00;;;5.83;;
30335;SDS011;17142;47.990;7.846;2022-08-18T12:18:39;6.60;;;5.53;;
30335;SDS011;17142;47.990;7.846;2022-08-18T12:21:05;5.47;;;4.93;;
30335;SDS011;17142;47.990;7.846;2022-08-18T12:23:32;7.07;;;6.37;;
30335;SDS011;17142;47.990;7.846;2022-08-18T12:25:59;7.93;;;5.70;;
30335;SDS011;17142;47.990;7.846;2022-08-18T12:28:25;6.70;;;6.00;;
30335;SDS011;17142;47.990;7.846;2022-08-18T12:30:55;7.50;;;6.80;;
30335;SDS011;17142;47.990;7.846;2022-08-18T12:33:23;6.23;;;5.63;;
30335;SDS011;17142;47.990;7.846;2022-08-18T12:35:54;6.83;;;6.23;;
30335;SDS011;17142;47.990;7.846;2022-08-18T12:38:19;6.90;;;6.23;;
30335;SDS011;17142;47.990;7.846;2022-08-18T12:40:47;6.97;;;6.33;;
30335;SDS011;17142;47.990;7.846;2022-08-18T12:43:13;7.47;;;6.73;;
30335;SDS011;17142;47.990;7.846;2022-08-18T12:45:38;7.10;;;6.40;;
30335;SDS011;17142;47.990;7.846;2022-08-18T12:48:07;6.97;;;6.27;;
30335;SDS011;17142;47.990;7.846;2022-08-18T12:50:33;6.47;;;5.87;;
30335;SDS011;17142;47.990;7.846;2022-08-18T12:53:00;7.17;;;6.47;;
30335;SDS011;17142;47.990;7.846;2022-08-18T12:55:27;7.30;;;6.60;;
30335;SDS011;17142;47.990;7.846;2022-08-18T12:57:58;8.87;;;6.60;;
30335;SDS011;17142;47.990;7.846;2022-08-18T13:00:26;7.33;;;6.57;;
30335;SDS011;17142;47.990;7.846;2022-08-18T13:02:52;7.60;;;6.87;;
30335;SDS011;17142;47.990;7.846;2022-08-18T13:05:18;7.53;;;6.73;;
30335;SDS011;17142;47.990;7.846;2022-08-18T13:07:45;8.37;;;7.47;;
30335;SDS011;17142;47.990;7.846;2022-08-18T13:10:11;7.50;;;6.77;;
30335;SDS011;17142;47.990;7.846;2022-08-18T13:12:37;7.80;;;6.93;;
30335;SDS011;17142;47.990;7.846;2022-08-18T13:15:03;7.33;;;6.63;;
30335;SDS011;17142;47.990;7.846;2022-08-18T13:17:30;8.30;;;7.47;;
30335;SDS011;17142;47.990;7.846;2022-08-18T13:19:56;6.80;;;6.20;;
30335;SDS011;17142;47.990;7.846;2022-08-18T13:22:22;8.40;;;7.33;;
30335;SDS011;17142;47.990;7.846;2022-08-18T13:24:47;9.43;;;8.33;;
30335;SDS011;17142;47.990;7.846;2022-08-18T13:27:14;9.40;;;8.57;;
30335;SDS011;17142;47.990;7.846;2022-08-18T13:29:40;8.70;;;8.00;;
30335;SDS011;17142;47.990;7.846;2022-08-18T13:32:07;7.93;;;7.03;;
30335;SDS011;17142;47.990;7.846;2022-08-18T13:34:33;8.87;;;7.97;;
30335;SDS011;17142;47.990;7.846;2022-08-18T13:37:02;11.10;;;8.60;;
30335;SDS011;17142;47.990;7.846;2022-08-18T13:39:29;9.23;;;8.40;;
30335;SDS011;17142;47.990;7.846;2022-08-18T13:41:55;9.53;;;8.63;;
30335;SDS011;17142;47.990;7.846;2022-08-18T13:44:22;9.07;;;7.90;;
30335;SDS011;17142;47.990;7.846;2022-08-18T13:46:49;9.37;;;8.47;;
30335;SDS011;17142;47.990;7.846;2022-08-18T13:49:19;8.47;;;7.57;;
30335;SDS011;17142;47.990;7.846;2022-08-18T13:51:47;8.73;;;7.47;;
30335;SDS011;17142;47.990;7.846;2022-08-18T13:54:25;8.60;;;7.70;;
30335;SDS011;17142;47.990;7.846;2022-08-18T13:56:53;9.30;;;8.40;;
30335;SDS011;17142;47.990;7.846;2022-08-18T13:59:20;10.53;;;9.30;;
30335;SDS011;17142;47.990;7.846;2022-08-18T14:01:47;9.33;;;8.50;;
30335;SDS011;17142;47.990;7.846;2022-08-18T14:04:18;8.33;;;7.43;;
30335;SDS011;17142;47.990;7.846;2022-08-18T14:06:47;11.63;;;9.07;;
30335;SDS011;17142;47.990;7.846;2022-08-18T14:09:16;9.87;;;8.93;;
30335;SDS011;17142;47.990;7.846;2022-08-18T14:11:44;9.97;;;9.00;;
30335;SDS011;17142;47.990;7.846;2022-08-18T14:14:13;11.33;;;10.23;;
30335;SDS011;17142;47.990;7.846;2022-08-18T14:16:39;10.27;;;9.27;;
30335;SDS011;17142;47.990;7.846;2022-08-18T14:19:07;9.40;;;8.40;;
30335;SDS011;17142;47.990;7.846;2022-08-18T14:21:52;9.43;;;8.50;;
30335;SDS011;17142;47.990;7.846;2022-08-18T14:24:38;10.60;;;9.50;;
30335;SDS011;17142;47.990;7.846;2022-08-18T14:27:24;11.63;;;10.53;;
30335;SDS011;17142;47.990;7.846;2022-08-18T14:29:59;11.57;;;10.40;;
30335;SDS011;17142;47.990;7.846;2022-08-18T14:32:30;10.50;;;9.10;;
30335;SDS011;17142;47.990;7.846;2022-08-18T14:34:57;12.30;;;10.33;;
30335;SDS011;17142;47.990;7.846;2022-08-18T14:37:25;8.90;;;8.10;;
30335;SDS011;17142;47.990;7.846;2022-08-18T14:39:51;10.03;;;8.77;;
30335;SDS011;17142;47.990;7.846;2022-08-18T14:42:17;10.70;;;9.23;;
30335;SDS011;17142;47.990;7.846;2022-08-18T14:44:45;9.93;;;8.90;;
30335;SDS011;17142;47.990;7.846;2022-08-18T14:47:11;10.10;;;9.10;;
30335;SDS011;17142;47.990;7.846;2022-08-18T14:49:37;9.40;;;8.50;;
30335;SDS011;17142;47.990;7.846;2022-08-18T14:52:06;10.43;;;8.43;;
30335;SDS011;17142;47.990;7.846;2022-08-18T14:54:35;9.87;;;8.87;;
30335;SDS011;17142;47.990;7.846;2022-08-18T14:57:01;9.77;;;8.80;;
30335;SDS011;17142;47.990;7.846;2022-08-18T14:59:29;8.17;;;7.30;;
30335;SDS011;17142;47.990;7.846;2022-08-18T15:01:56;8.10;;;7.27;;
30335;SDS011;17142;47.990;7.846;2022-08-18T15:04:23;7.40;;;6.63;;
30335;SDS011;17142;47.990;7.846;2022-08-18T15:06:49;10.73;;;8.60;;
30335;SDS011;17142;47.990;7.846;2022-08-18T15:09:15;8.43;;;7.73;;
30335;SDS011;17142;47.990;7.846;2022-08-18T15:11:41;10.03;;;8.20;;
30335;SDS011;17142;47.990;7.846;2022-08-18T15:14:09;8.67;;;7.87;;
30335;SDS011;17142;47.990;7.846;2022-08-18T15:16:35;8.23;;;7.37;;
30335;SDS011;17142;47.990;7.846;2022-08-18T15:19:01;8.83;;;7.87;;
30335;SDS011;17142;47.990;7.846;2022-08-18T15:21:28;9.13;;;7.57;;
30335;SDS011;17142;47.990;7.846;2022-08-18T15:24:12;8.90;;;8.00;;
30335;SDS011;17142;47.990;7.846;2022-08-18T15:26:57;8.57;;;7.67;;
30335;SDS011;17142;47.990;7.846;2022-08-18T15:29:26;8.10;;;7.30;;
30335;SDS011;17142;47.990;7.846;2022-08-18T15:31:53;8.20;;;7.40;;
30335;SDS011;17142;47.990;7.846;2022-08-18T15:34:19;8.50;;;7.70;;
30335;SDS011;17142;47.990;7.846;2022-08-18T15:36:46;6.53;;;5.93;;
30335;SDS011;17142;47.990;7.846;2022-08-18T15:39:14;7.10;;;6.30;;
30335;SDS011;17142;47.990;7.846;2022-08-18T15:41:44;9.47;;;7.60;;
30335;SDS011;17142;47.990;7.846;2022-08-18T15:44:13;7.40;;;6.70;;
30335;SDS011;17142;47.990;7.846;2022-08-18T15:46:41;7.83;;;7.10;;
30335;SDS011;17142;47.990;7.846;2022-08-18T15:49:07;8.67;;;7.70;;
30335;SDS011;17142;47.990;7.846;2022-08-18T15:51:33;8.70;;;7.87;;
30335;SDS011;17142;47.990;7.846;2022-08-18T15:54:03;7.70;;;7.00;;
30335;SDS011;17142;47.990;7.846;2022-08-18T15:56:30;9.53;;;8.20;;
30335;SDS011;17142;47.990;7.846;2022-08-18T15:58:56;8.07;;;7.37;;
30335;SDS011;17142;47.990;7.846;2022-08-18T16:01:23;8.10;;;7.10;;
30335;SDS011;17142;47.990;7.846;2022-08-18T16:03:52;7.73;;;7.00;;
30335;SDS011;17142;47.990;7.846;2022-08-18T16:06:22;8.23;;;7.53;;
30335;SDS011;17142;47.990;7.846;2022-08-18T16:08:50;7.87;;;6.97;;
30335;SDS011;17142;47.990;7.846;2022-08-18T16:11:16;8.20;;;7.20;;
30335;SDS011;17142;47.990;7.846;2022-08-18T16:13:43;9.07;;;8.27;;
30335;SDS011;17142;47.990;7.846;2022-08-18T16:18:44;7.90;;;7.10;;
30335;SDS011;17142;47.990;7.846;2022-08-18T16:21:12;7.57;;;6.77;;
30335;SDS011;17142;47.990;7.846;2022-08-18T16:23:42;7.37;;;6.67;;
30335;SDS011;17142;47.990;7.846;2022-08-18T16:26:10;6.63;;;5.93;;
30335;SDS011;17142;47.990;7.846;2022-08-18T16:28:42;8.53;;;7.67;;
30335;SDS011;17142;47.990;7.846;2022-08-18T16:31:12;6.77;;;6.17;;
30335;SDS011;17142;47.990;7.846;2022-08-18T16:33:43;6.23;;;5.63;;
30335;SDS011;17142;47.990;7.846;2022-08-18T16:36:10;8.00;;;7.00;;
30335;SDS011;17142;47.990;7.846;2022-08-18T16:38:38;6.80;;;6.20;;
30335;SDS011;17142;47.990;7.846;2022-08-18T16:41:08;7.97;;;7.17;;
30335;SDS011;17142;47.990;7.846;2022-08-18T16:43:39;8.90;;;8.10;;
30335;SDS011;17142;47.990;7.846;2022-08-18T16:46:12;8.53;;;7.73;;
30335;SDS011;17142;47.990;7.846;2022-08-18T16:48:43;6.40;;;5.90;;
30335;SDS011;17142;47.990;7.846;2022-08-18T16:51:16;7.33;;;6.63;;
30335;SDS011;17142;47.990;7.846;2022-08-18T16:53:48;7.30;;;6.20;;
30335;SDS011;17142;47.990;7.846;2022-08-18T16:56:16;6.70;;;6.10;;
30335;SDS011;17142;47.990;7.846;2022-08-18T16:58:44;5.83;;;5.33;;
30335;SDS011;17142;47.990;7.846;2022-08-18T17:01:28;8.20;;;6.20;;
30335;SDS011;17142;47.990;7.846;2022-08-18T17:04:13;6.50;;;5.90;;
30335;SDS011;17142;47.990;7.846;2022-08-18T17:06:44;6.77;;;6.07;;
30335;SDS011;17142;47.990;7.846;2022-08-18T17:09:10;6.30;;;5.70;;
30335;SDS011;17142;47.990;7.846;2022-08-18T17:11:39;6.63;;;6.00;;
30335;SDS011;17142;47.990;7.846;2022-08-18T17:14:05;7.00;;;6.40;;
30335;SDS011;17142;47.990;7.846;2022-08-18T17:16:32;6.37;;;5.83;;
30335;SDS011;17142;47.990;7.846;2022-08-18T17:18:59;6.23;;;5.67;;
30335;SDS011;17142;47.990;7.846;2022-08-18T17:21:26;7.20;;;6.50;;
30335;SDS011;17142;47.990;7.846;2022-08-18T17:23:54;6.57;;;5.97;;
30335;SDS011;17142;47.990;7.846;2022-08-18T17:29:19;6.40;;;5.80;;
30335;SDS011;17142;47.990;7.846;2022-08-18T17:31:55;6.93;;;6.33;;
30335;SDS011;17142;47.990;7.846;2022-08-18T17:34:26;6.87;;;6.23;;
30335;SDS011;17142;47.990;7.846;2022-08-18T17:37:02;8.17;;;7.27;;
30335;SDS011;17142;47.990;7.846;2022-08-18T17:39:44;7.43;;;6.83;;
30335;SDS011;17142;47.990;7.846;2022-08-18T17:42:29;6.97;;;6.27;;
30335;SDS011;17142;47.990;7.846;2022-08-18T17:45:04;8.13;;;6.20;;
30335;SDS011;17142;47.990;7.846;2022-08-18T17:50:52;7.73;;;7.03;;
30335;SDS011;17142;47.990;7.846;2022-08-18T17:53:44;8.40;;;7.53;;
30335;SDS011;17142;47.990;7.846;2022-08-18T17:58:43;11.27;;;9.70;;
30335;SDS011;17142;47.990;7.846;2022-08-18T18:01:12;13.00;;;10.70;;
30335;SDS011;17142;47.990;7.846;2022-08-18T18:03:38;12.40;;;9.87;;
30335;SDS011;17142;47.990;7.846;2022-08-18T18:06:06;12.80;;;10.83;;
30335;SDS011;17142;47.990;7.846;2022-08-18T18:11:21;15.17;;;12.77;;
30335;SDS011;17142;47.990;7.846;2022-08-18T18:13:50;13.67;;;12.20;;
30335;SDS011;17142;47.990;7.846;2022-08-18T18:16:29;14.23;;;12.73;;
30335;SDS011;17142;47.990;7.846;2022-08-18T18:19:00;12.20;;;10.97;;
30335;SDS011;17142;47.990;7.846;2022-08-18T18:21:30;12.77;;;11.47;;
30335;SDS011;17142;47.990;7.846;2022-08-18T18:31:39;13.93;;;12.53;;
30335;SDS011;17142;47.990;7.846;2022-08-18T18:34:28;18.70;;;13.87;;
30335;SDS011;17142;47.990;7.846;2022-08-18T18:37:03;17.33;;;14.13;;
30335;SDS011;17142;47.990;7.846;2022-08-18T18:39:32;14.10;;;12.67;;
30335;SDS011;17142;47.990;7.846;2022-08-18T18:42:35;16.10;;;12.73;;
30335;SDS011;17142;47.990;7.846;2022-08-18T18:44:57;13.07;;;11.40;;
30335;SDS011;17142;47.990;7.846;2022-08-18T18:55:27;17.33;;;13.33;;
30335;SDS011;17142;47.990;7.846;2022-08-18T19:00:49;15.77;;;11.90;;
30335;SDS011;17142;47.990;7.846;2022-08-18T19:03:22;16.97;;;13.10;;
30335;SDS011;17142;47.990;7.846;2022-08-18T19:14:25;22.17;;;14.67;;
30335;SDS011;17142;47.990;7.846;2022-08-18T19:17:00;17.17;;;14.20;;
30335;SDS011;17142;47.990;7.846;2022-08-18T19:19:48;18.07;;;12.70;;
30335;SDS011;17142;47.990;7.846;2022-08-18T19:22:39;18.40;;;14.50;;
30335;SDS011;17142;47.990;7.846;2022-08-18T19:28:02;23.23;;;14.27;;
30335;SDS011;17142;47.990;7.846;2022-08-18T19:30:43;17.37;;;12.80;;
30335;SDS011;17142;47.990;7.846;2022-08-18T19:33:14;17.37;;;12.97;;
30335;SDS011;17142;47.990;7.846;2022-08-18T19:41:02;22.20;;;15.70;;
30335;SDS011;17142;47.990;7.846;2022-08-18T19:46:29;17.37;;;12.97;;
30335;SDS011;17142;47.990;7.846;2022-08-18T19:51:54;19.40;;;12.50;;
30335;SDS011;17142;47.990;7.846;2022-08-18T19:54:42;21.77;;;15.13;;
30335;SDS011;17142;47.990;7.846;2022-08-18T20:05:40;23.00;;;16.33;;
30335;SDS011;17142;47.990;7.846;2022-08-18T20:11:37;30.83;;;20.17;;
30335;SDS011;17142;47.990;7.846;2022-08-18T20:14:08;23.80;;;15.07;;
30335;SDS011;17142;47.990;7.846;2022-08-18T20:16:38;25.77;;;14.60;;
30335;SDS011;17142;47.990;7.846;2022-08-18T20:22:01;21.10;;;14.60;;
30335;SDS011;17142;47.990;7.846;2022-08-18T20:24:40;23.90;;;14.00;;
30335;SDS011;17142;47.990;7.846;2022-08-18T20:29:41;39.10;;;24.93;;
30335;SDS011;17142;47.990;7.846;2022-08-18T20:32:21;31.37;;;21.10;;
30335;SDS011;17142;47.990;7.846;2022-08-18T20:35:20;26.90;;;17.43;;
30335;SDS011;17142;47.990;7.846;2022-08-18T20:40:45;29.13;;;15.80;;
30335;SDS011;17142;47.990;7.846;2022-08-18T20:46:10;22.57;;;13.23;;
30335;SDS011;17142;47.990;7.846;2022-08-18T20:51:43;24.03;;;15.37;;
30335;SDS011;17142;47.990;7.846;2022-08-18T20:56:52;26.70;;;14.77;;
30335;SDS011;17142;47.990;7.846;2022-08-18T20:59:24;27.93;;;14.10;;
30335;SDS011;17142;47.990;7.846;2022-08-18T21:02:06;23.97;;;12.77;;
30335;SDS011;17142;47.990;7.846;2022-08-18T21:04:51;19.50;;;12.37;;
30335;SDS011;17142;47.990;7.846;2022-08-18T21:07:19;27.47;;;15.13;;
30335;SDS011;17142;47.990;7.846;2022-08-18T21:09:52;27.40;;;14.60;;
30335;SDS011;17142;47.990;7.846;2022-08-18T21:12:28;21.70;;;13.17;;
30335;SDS011;17142;47.990;7.846;2022-08-18T21:14:57;28.33;;;14.90;;
30335;SDS011;17142;47.990;7.846;2022-08-18T21:17:32;23.80;;;14.30;;
30335;SDS011;17142;47.990;7.846;2022-08-18T21:20:05;24.13;;;15.20;;
30335;SDS011;17142;47.990;7.846;2022-08-18T21:22:33;21.37;;;16.93;;
30335;SDS011;17142;47.990;7.846;2022-08-18T21:25:02;18.27;;;15.30;;
30335;SDS011;17142;47.990;7.846;2022-08-18T21:27:29;16.27;;;13.10;;
30335;SDS011;17142;47.990;7.846;2022-08-18T21:30:07;18.73;;;13.20;;
30335;SDS011;17142;47.990;7.846;2022-08-18T21:32:39;13.50;;;12.07;;
30335;SDS011;17142;47.990;7.846;2022-08-18T21:38:07;15.63;;;11.30;;
30335;SDS011;17142;47.990;7.846;2022-08-18T21:43:09;36.43;;;29.13;;
30335;SDS011;17142;47.990;7.846;2022-08-18T21:45:54;10.63;;;9.53;;
30335;SDS011;17142;47.990;7.846;2022-08-18T21:48:23;9.57;;;8.63;;
30335;SDS011;17142;47.990;7.846;2022-08-18T21:50:53;10.87;;;9.13;;
30335;SDS011;17142;47.990;7.846;2022-08-18T21:53:25;11.90;;;10.17;;
30335;SDS011;17142;47.990;7.846;2022-08-18T21:55:57;9.57;;;8.57;;
30335;SDS011;17142;47.990;7.846;2022-08-18T21:58:41;9.80;;;8.90;;
30335;SDS011;17142;47.990;7.846;2022-08-18T22:06:56;8.63;;;7.83;;
30335;SDS011;17142;47.990;7.846;2022-08-18T22:09:28;7.77;;;7.10;;
30335;SDS011;17142;47.990;7.846;2022-08-18T22:18:03;8.73;;;7.83;;
30335;SDS011;17142;47.990;7.846;2022-08-18T22:26:12;8.77;;;7.53;;
30335;SDS011;17142;47.990;7.846;2022-08-18T22:31:18;8.90;;;8.00;;
30335;SDS011;17142;47.990;7.846;2022-08-18T22:33:44;9.13;;;8.23;;
30335;SDS011;17142;47.990;7.846;2022-08-18T22:36:12;9.90;;;9.00;;
30335;SDS011;17142;47.990;7.846;2022-08-18T22:38:44;10.10;;;7.97;;
30335;SDS011;17142;47.990;7.846;2022-08-18T22:41:10;13.03;;;8.50;;
30335;SDS011;17142;47.990;7.846;2022-08-18T22:43:38;9.53;;;8.60;;
30335;SDS011;17142;47.990;7.846;2022-08-18T22:46:04;17.63;;;9.03;;
30335;SDS011;17142;47.990;7.846;2022-08-18T22:48:29;13.40;;;9.10;;
30335;SDS011;17142;47.990;7.846;2022-08-18T22:50:55;8.83;;;7.83;;
30335;SDS011;17142;47.990;7.846;2022-08-18T22:53:21;9.10;;;7.60;;
30335;SDS011;17142;47.990;7.846;2022-08-18T22:55:47;9.50;;;8.50;;
30335;SDS011;17142;47.990;7.846;2022-08-18T22:58:14;16.30;;;12.03;;
30335;SDS011;17142;47.990;7.846;2022-08-18T23:00:39;25.83;;;16.90;;
30335;SDS011;17142;47.990;7.846;2022-08-18T23:03:07;13.67;;;11.13;;
30335;SDS011;17142;47.990;7.846;2022-08-18T23:05:33;10.30;;;9.40;;
30335;SDS011;17142;47.990;7.846;2022-08-18T23:07:59;11.30;;;10.10;;
30335;SDS011;17142;47.990;7.846;2022-08-18T23:10:26;15.67;;;10.13;;
30335;SDS011;17142;47.990;7.846;2022-08-18T23:12:52;12.97;;;10.70;;
30335;SDS011;17142;47.990;7.846;2022-08-18T23:15:20;12.63;;;11.20;;
30335;SDS011;17142;47.990;7.846;2022-08-18T23:18:02;11.37;;;10.17;;
30335;SDS011;17142;47.990;7.846;2022-08-18T23:20:30;14.50;;;10.80;;
30335;SDS011;17142;47.990;7.846;2022-08-18T23:22:56;10.80;;;9.70;;
30335;SDS011;17142;47.990;7.846;2022-08-18T23:25:22;10.83;;;9.80;;
30335;SDS011;17142;47.990;7.846;2022-08-18T23:27:50;11.97;;;10.87;;
30335;SDS011;17142;47.990;7.846;2022-08-18T23:30:19;11.87;;;9.93;;
30335;SDS011;17142;47.990;7.846;2022-08-18T23:32:45;12.33;;;9.33;;
30335;SDS011;17142;47.990;7.846;2022-08-18T23:35:11;10.97;;;8.93;;
30335;SDS011;17142;47.990;7.846;2022-08-18T23:37:39;11.40;;;8.80;;
30335;SDS011;17142;47.990;7.846;2022-08-18T23:40:06;11.97;;;8.90;;
30335;SDS011;17142;47.990;7.846;2022-08-18T23:42:43;11.43;;;10.23;;
30335;SDS011;17142;47.990;7.846;2022-08-18T23:45:15;15.83;;;10.37;;
30335;SDS011;17142;47.990;7.846;2022-08-18T23:47:42;16.10;;;10.43;;
30335;SDS011;17142;47.990;7.846;2022-08-18T23:50:08;11.27;;;10.07;;
30335;SDS011;17142;47.990;7.846;2022-08-18T23:52:35;11.70;;;9.77;;
30335;SDS011;17142;47.990;7.846;2022-08-18T23:55:03;15.07;;;10.97;;
30335;SDS011;17142;47.990;7.846;2022-08-18T23:57:30;15.20;;;12.00;;
30335;SDS011;17142;47.990;7.846;2022-08-18T23:59:58;18.27;;;13.17;;
